Terminal Aerodrome Forecast
Issued by NWS

Home | Current Version | Previous Version | Text Only | Print | Product List | Glossary On
Versions: 1 2 3 4 5 6 7 8 9 10 11 12 13 14 15 16 17 18 19 20
769
FTUS44 KSJT 181745
TAFSOA
TAF
KSOA 181745Z 1818/1918 16010G15KT P6SM OVC008
     FM182000 17015KT P6SM OVC020=

USA.gov is the U.S. government's official web portal to all federal, state and local government web resources and services.